sensor_id;sensor_type;location;lat;lon;timestamp;P1;durP1;ratioP1;P2;durP2;ratioP2
61038;SDS011;46919;45.816;3.104;2023-04-01T00:01:45;9.48;;;1.48;;
61038;SDS011;46919;45.816;3.104;2023-04-01T00:04:10;6.57;;;1.42;;
61038;SDS011;46919;45.816;3.104;2023-04-01T00:06:36;8.80;;;1.10;;
61038;SDS011;46919;45.816;3.104;2023-04-01T00:09:01;4.68;;;1.10;;
61038;SDS011;46919;45.816;3.104;2023-04-01T00:11:27;5.68;;;1.08;;
61038;SDS011;46919;45.816;3.104;2023-04-01T00:13:52;5.25;;;0.98;;
61038;SDS011;46919;45.816;3.104;2023-04-01T00:16:18;7.30;;;1.30;;
61038;SDS011;46919;45.816;3.104;2023-04-01T00:18:43;4.45;;;1.08;;
61038;SDS011;46919;45.816;3.104;2023-04-01T00:21:09;5.50;;;1.15;;
61038;SDS011;46919;45.816;3.104;2023-04-01T00:23:35;8.07;;;1.13;;
61038;SDS011;46919;45.816;3.104;2023-04-01T00:26:01;6.28;;;1.08;;
61038;SDS011;46919;45.816;3.104;2023-04-01T00:28:28;8.07;;;1.00;;
61038;SDS011;46919;45.816;3.104;2023-04-01T00:30:54;4.25;;;0.80;;
61038;SDS011;46919;45.816;3.104;2023-04-01T00:33:19;8.52;;;1.35;;
61038;SDS011;46919;45.816;3.104;2023-04-01T00:35:45;7.03;;;1.88;;
61038;SDS011;46919;45.816;3.104;2023-04-01T00:38:11;6.05;;;1.40;;
61038;SDS011;46919;45.816;3.104;2023-04-01T00:40:38;8.45;;;1.52;;
61038;SDS011;46919;45.816;3.104;2023-04-01T00:43:12;5.68;;;1.48;;
61038;SDS011;46919;45.816;3.104;2023-04-01T00:45:40;11.32;;;1.52;;
61038;SDS011;46919;45.816;3.104;2023-04-01T00:48:13;9.63;;;1.60;;
61038;SDS011;46919;45.816;3.104;2023-04-01T00:50:47;11.02;;;1.67;;
61038;SDS011;46919;45.816;3.104;2023-04-01T00:53:16;10.07;;;1.52;;
61038;SDS011;46919;45.816;3.104;2023-04-01T00:55:46;7.30;;;1.40;;
61038;SDS011;46919;45.816;3.104;2023-04-01T00:58:26;7.15;;;1.60;;
61038;SDS011;46919;45.816;3.104;2023-04-01T01:00:55;9.43;;;1.67;;
61038;SDS011;46919;45.816;3.104;2023-04-01T01:03:23;8.25;;;1.42;;
61038;SDS011;46919;45.816;3.104;2023-04-01T01:06:02;6.82;;;1.48;;
61038;SDS011;46919;45.816;3.104;2023-04-01T01:11:20;10.02;;;1.77;;
61038;SDS011;46919;45.816;3.104;2023-04-01T01:13:58;12.02;;;1.70;;
61038;SDS011;46919;45.816;3.104;2023-04-01T01:16:34;11.05;;;1.75;;
61038;SDS011;46919;45.816;3.104;2023-04-01T01:25:00;9.55;;;1.67;;
61038;SDS011;46919;45.816;3.104;2023-04-01T01:27:26;7.57;;;1.27;;
61038;SDS011;46919;45.816;3.104;2023-04-01T01:35:42;6.72;;;1.38;;
61038;SDS011;46919;45.816;3.104;2023-04-01T01:38:15;7.25;;;1.33;;
61038;SDS011;46919;45.816;3.104;2023-04-01T01:40:44;10.75;;;1.83;;
61038;SDS011;46919;45.816;3.104;2023-04-01T01:43:14;5.05;;;0.95;;
61038;SDS011;46919;45.816;3.104;2023-04-01T01:45:46;7.90;;;1.38;;
61038;SDS011;46919;45.816;3.104;2023-04-01T01:48:15;10.15;;;1.25;;
61038;SDS011;46919;45.816;3.104;2023-04-01T01:50:43;5.18;;;1.05;;
61038;SDS011;46919;45.816;3.104;2023-04-01T01:53:11;6.13;;;1.35;;
61038;SDS011;46919;45.816;3.104;2023-04-01T01:55:41;7.15;;;1.83;;
61038;SDS011;46919;45.816;3.104;2023-04-01T01:58:16;8.23;;;1.20;;
61038;SDS011;46919;45.816;3.104;2023-04-01T02:00:50;6.18;;;1.15;;
61038;SDS011;46919;45.816;3.104;2023-04-01T02:03:20;9.65;;;1.20;;
61038;SDS011;46919;45.816;3.104;2023-04-01T02:05:48;5.25;;;1.00;;
61038;SDS011;46919;45.816;3.104;2023-04-01T02:08:17;6.63;;;1.00;;
61038;SDS011;46919;45.816;3.104;2023-04-01T02:11:21;6.72;;;1.10;;
61038;SDS011;46919;45.816;3.104;2023-04-01T02:13:45;8.80;;;1.05;;
61038;SDS011;46919;45.816;3.104;2023-04-01T02:16:14;6.53;;;0.98;;
61038;SDS011;46919;45.816;3.104;2023-04-01T02:21:13;5.88;;;1.10;;
61038;SDS011;46919;45.816;3.104;2023-04-01T02:23:40;3.92;;;0.90;;
61038;SDS011;46919;45.816;3.104;2023-04-01T02:26:07;6.75;;;0.90;;
61038;SDS011;46919;45.816;3.104;2023-04-01T02:28:35;5.38;;;0.70;;
61038;SDS011;46919;45.816;3.104;2023-04-01T02:31:03;4.75;;;0.95;;
61038;SDS011;46919;45.816;3.104;2023-04-01T02:33:29;6.30;;;1.02;;
61038;SDS011;46919;45.816;3.104;2023-04-01T02:35:55;4.68;;;0.82;;
61038;SDS011;46919;45.816;3.104;2023-04-01T02:38:22;5.68;;;0.85;;
61038;SDS011;46919;45.816;3.104;2023-04-01T02:40:49;5.45;;;0.77;;
61038;SDS011;46919;45.816;3.104;2023-04-01T02:43:16;3.08;;;0.90;;
61038;SDS011;46919;45.816;3.104;2023-04-01T02:45:43;4.45;;;1.08;;
61038;SDS011;46919;45.816;3.104;2023-04-01T02:48:08;5.07;;;0.93;;
61038;SDS011;46919;45.816;3.104;2023-04-01T02:50:34;2.92;;;0.75;;
61038;SDS011;46919;45.816;3.104;2023-04-01T02:53:00;3.42;;;0.60;;
61038;SDS011;46919;45.816;3.104;2023-04-01T02:55:28;2.03;;;0.52;;
61038;SDS011;46919;45.816;3.104;2023-04-01T02:57:55;2.55;;;0.60;;
61038;SDS011;46919;45.816;3.104;2023-04-01T03:00:20;4.72;;;0.75;;
61038;SDS011;46919;45.816;3.104;2023-04-01T03:02:46;3.25;;;0.60;;
61038;SDS011;46919;45.816;3.104;2023-04-01T03:05:11;4.60;;;0.90;;
61038;SDS011;46919;45.816;3.104;2023-04-01T03:07:37;3.20;;;0.90;;
61038;SDS011;46919;45.816;3.104;2023-04-01T03:10:03;6.72;;;0.80;;
61038;SDS011;46919;45.816;3.104;2023-04-01T03:12:29;3.53;;;0.70;;
61038;SDS011;46919;45.816;3.104;2023-04-01T03:14:54;4.88;;;0.90;;
61038;SDS011;46919;45.816;3.104;2023-04-01T03:17:20;5.93;;;0.73;;
61038;SDS011;46919;45.816;3.104;2023-04-01T03:19:45;6.50;;;0.80;;
61038;SDS011;46919;45.816;3.104;2023-04-01T03:22:11;4.60;;;0.80;;
61038;SDS011;46919;45.816;3.104;2023-04-01T03:24:36;4.68;;;1.00;;
61038;SDS011;46919;45.816;3.104;2023-04-01T03:27:02;3.78;;;0.70;;
61038;SDS011;46919;45.816;3.104;2023-04-01T03:29:27;7.80;;;0.80;;
61038;SDS011;46919;45.816;3.104;2023-04-01T03:31:53;4.93;;;0.88;;
61038;SDS011;46919;45.816;3.104;2023-04-01T03:34:18;5.15;;;1.00;;
61038;SDS011;46919;45.816;3.104;2023-04-01T03:36:44;7.38;;;0.98;;
61038;SDS011;46919;45.816;3.104;2023-04-01T03:39:09;4.82;;;0.77;;
61038;SDS011;46919;45.816;3.104;2023-04-01T03:41:35;4.18;;;0.82;;
61038;SDS011;46919;45.816;3.104;2023-04-01T03:44:02;3.90;;;0.60;;
61038;SDS011;46919;45.816;3.104;2023-04-01T03:46:28;3.75;;;0.60;;
61038;SDS011;46919;45.816;3.104;2023-04-01T03:48:53;3.28;;;0.55;;
61038;SDS011;46919;45.816;3.104;2023-04-01T03:51:19;2.40;;;0.52;;
61038;SDS011;46919;45.816;3.104;2023-04-01T03:53:44;2.67;;;0.50;;
61038;SDS011;46919;45.816;3.104;2023-04-01T03:56:10;4.85;;;0.60;;
61038;SDS011;46919;45.816;3.104;2023-04-01T03:58:37;2.47;;;0.55;;
61038;SDS011;46919;45.816;3.104;2023-04-01T04:01:12;2.30;;;0.60;;
61038;SDS011;46919;45.816;3.104;2023-04-01T04:03:42;2.60;;;0.40;;
61038;SDS011;46919;45.816;3.104;2023-04-01T04:06:15;4.72;;;0.70;;
61038;SDS011;46919;45.816;3.104;2023-04-01T04:08:42;2.00;;;0.52;;
61038;SDS011;46919;45.816;3.104;2023-04-01T04:11:08;2.45;;;0.40;;
61038;SDS011;46919;45.816;3.104;2023-04-01T04:13:33;3.67;;;0.50;;
61038;SDS011;46919;45.816;3.104;2023-04-01T04:15:59;5.07;;;0.90;;
61038;SDS011;46919;45.816;3.104;2023-04-01T04:18:24;4.97;;;0.65;;
61038;SDS011;46919;45.816;3.104;2023-04-01T04:20:50;2.53;;;0.80;;
61038;SDS011;46919;45.816;3.104;2023-04-01T04:23:16;2.25;;;0.40;;
61038;SDS011;46919;45.816;3.104;2023-04-01T04:26:02;4.13;;;1.00;;
61038;SDS011;46919;45.816;3.104;2023-04-01T04:28:30;1.70;;;0.40;;
61038;SDS011;46919;45.816;3.104;2023-04-01T04:30:55;2.55;;;0.65;;
61038;SDS011;46919;45.816;3.104;2023-04-01T04:33:21;3.40;;;0.45;;
61038;SDS011;46919;45.816;3.104;2023-04-01T04:35:47;5.18;;;0.50;;
61038;SDS011;46919;45.816;3.104;2023-04-01T04:38:13;3.40;;;0.60;;
61038;SDS011;46919;45.816;3.104;2023-04-01T04:40:39;2.58;;;0.60;;
61038;SDS011;46919;45.816;3.104;2023-04-01T04:43:06;5.20;;;0.60;;
61038;SDS011;46919;45.816;3.104;2023-04-01T04:45:31;4.05;;;0.57;;
61038;SDS011;46919;45.816;3.104;2023-04-01T04:47:57;3.08;;;0.55;;
61038;SDS011;46919;45.816;3.104;2023-04-01T04:50:24;6.57;;;0.90;;
61038;SDS011;46919;45.816;3.104;2023-04-01T04:52:50;2.20;;;0.52;;
61038;SDS011;46919;45.816;3.104;2023-04-01T04:55:16;4.57;;;0.90;;
61038;SDS011;46919;45.816;3.104;2023-04-01T04:57:41;4.32;;;0.80;;
61038;SDS011;46919;45.816;3.104;2023-04-01T05:00:07;4.85;;;0.80;;
61038;SDS011;46919;45.816;3.104;2023-04-01T05:02:35;3.58;;;0.93;;
61038;SDS011;46919;45.816;3.104;2023-04-01T05:05:00;3.30;;;0.60;;
61038;SDS011;46919;45.816;3.104;2023-04-01T05:07:26;4.85;;;0.88;;
61038;SDS011;46919;45.816;3.104;2023-04-01T05:09:51;5.22;;;0.70;;
61038;SDS011;46919;45.816;3.104;2023-04-01T05:12:17;4.07;;;0.57;;
61038;SDS011;46919;45.816;3.104;2023-04-01T05:14:42;4.25;;;0.80;;
61038;SDS011;46919;45.816;3.104;2023-04-01T05:17:08;4.95;;;0.98;;
61038;SDS011;46919;45.816;3.104;2023-04-01T05:19:35;5.45;;;0.70;;
61038;SDS011;46919;45.816;3.104;2023-04-01T05:22:00;4.72;;;0.90;;
61038;SDS011;46919;45.816;3.104;2023-04-01T05:24:26;3.80;;;0.75;;
61038;SDS011;46919;45.816;3.104;2023-04-01T05:26:51;6.05;;;1.00;;
61038;SDS011;46919;45.816;3.104;2023-04-01T05:29:16;3.00;;;0.65;;
61038;SDS011;46919;45.816;3.104;2023-04-01T05:31:42;3.95;;;0.90;;
61038;SDS011;46919;45.816;3.104;2023-04-01T05:34:07;7.65;;;1.23;;
61038;SDS011;46919;45.816;3.104;2023-04-01T05:36:33;4.30;;;0.98;;
61038;SDS011;46919;45.816;3.104;2023-04-01T05:38:59;3.92;;;1.00;;
61038;SDS011;46919;45.816;3.104;2023-04-01T05:41:24;4.57;;;0.70;;
61038;SDS011;46919;45.816;3.104;2023-04-01T05:43:50;2.97;;;0.70;;
61038;SDS011;46919;45.816;3.104;2023-04-01T05:46:15;3.90;;;0.88;;
61038;SDS011;46919;45.816;3.104;2023-04-01T05:48:40;3.53;;;0.95;;
61038;SDS011;46919;45.816;3.104;2023-04-01T05:51:06;7.68;;;1.00;;
61038;SDS011;46919;45.816;3.104;2023-04-01T05:53:31;4.82;;;0.60;;
61038;SDS011;46919;45.816;3.104;2023-04-01T05:56:01;4.90;;;0.88;;
61038;SDS011;46919;45.816;3.104;2023-04-01T05:58:27;3.80;;;0.70;;
61038;SDS011;46919;45.816;3.104;2023-04-01T06:00:59;3.50;;;0.65;;
61038;SDS011;46919;45.816;3.104;2023-04-01T06:05:51;5.68;;;1.05;;
61038;SDS011;46919;45.816;3.104;2023-04-01T06:08:17;7.72;;;1.17;;
61038;SDS011;46919;45.816;3.104;2023-04-01T06:26:59;8.55;;;2.00;;
61038;SDS011;46919;45.816;3.104;2023-04-01T06:45:35;10.02;;;1.25;;
61038;SDS011;46919;45.816;3.104;2023-04-01T06:48:27;6.15;;;1.38;;
61038;SDS011;46919;45.816;3.104;2023-04-01T06:51:10;12.30;;;1.80;;
61038;SDS011;46919;45.816;3.104;2023-04-01T06:56:45;7.63;;;1.48;;
61038;SDS011;46919;45.816;3.104;2023-04-01T06:59:17;11.43;;;1.58;;
61038;SDS011;46919;45.816;3.104;2023-04-01T07:01:58;6.50;;;1.10;;
61038;SDS011;46919;45.816;3.104;2023-04-01T07:04:32;5.00;;;1.08;;
61038;SDS011;46919;45.816;3.104;2023-04-01T07:07:04;3.83;;;0.95;;
61038;SDS011;46919;45.816;3.104;2023-04-01T07:09:40;6.40;;;1.10;;
61038;SDS011;46919;45.816;3.104;2023-04-01T07:15:01;7.32;;;1.30;;
61038;SDS011;46919;45.816;3.104;2023-04-01T07:17:41;4.43;;;0.93;;
61038;SDS011;46919;45.816;3.104;2023-04-01T07:20:18;3.50;;;0.75;;
61038;SDS011;46919;45.816;3.104;2023-04-01T07:22:49;5.80;;;0.90;;
61038;SDS011;46919;45.816;3.104;2023-04-01T07:25:18;5.35;;;0.98;;
61038;SDS011;46919;45.816;3.104;2023-04-01T07:27:47;5.57;;;1.20;;
61038;SDS011;46919;45.816;3.104;2023-04-01T07:30:17;7.43;;;1.10;;
61038;SDS011;46919;45.816;3.104;2023-04-01T07:48:58;2.13;;;0.38;;
61038;SDS011;46919;45.816;3.104;2023-04-01T07:51:37;2.45;;;0.60;;
61038;SDS011;46919;45.816;3.104;2023-04-01T07:54:22;2.88;;;0.40;;
61038;SDS011;46919;45.816;3.104;2023-04-01T08:00:22;3.47;;;0.40;;
61038;SDS011;46919;45.816;3.104;2023-04-01T08:11:52;2.70;;;0.80;;
61038;SDS011;46919;45.816;3.104;2023-04-01T08:22:27;2.33;;;0.40;;
61038;SDS011;46919;45.816;3.104;2023-04-01T08:24:59;2.65;;;0.50;;
61038;SDS011;46919;45.816;3.104;2023-04-01T08:27:37;3.83;;;0.65;;
61038;SDS011;46919;45.816;3.104;2023-04-01T08:30:17;4.97;;;1.17;;
61038;SDS011;46919;45.816;3.104;2023-04-01T08:32:52;3.03;;;0.60;;
61038;SDS011;46919;45.816;3.104;2023-04-01T08:38:07;5.63;;;0.98;;
61038;SDS011;46919;45.816;3.104;2023-04-01T08:43:29;1.70;;;0.40;;
61038;SDS011;46919;45.816;3.104;2023-04-01T08:59:54;1.35;;;0.50;;
61038;SDS011;46919;45.816;3.104;2023-04-01T09:19:19;1.05;;;0.30;;
61038;SDS011;46919;45.816;3.104;2023-04-01T09:24:35;0.73;;;0.10;;
61038;SDS011;46919;45.816;3.104;2023-04-01T09:43:25;0.40;;;0.10;;
61038;SDS011;46919;45.816;3.104;2023-04-01T09:48:46;0.38;;;0.10;;
61038;SDS011;46919;45.816;3.104;2023-04-01T09:51:44;0.17;;;0.08;;
61038;SDS011;46919;45.816;3.104;2023-04-01T09:54:24;0.17;;;0.05;;
61038;SDS011;46919;45.816;3.104;2023-04-01T10:13:30;0.52;;;0.13;;
61038;SDS011;46919;45.816;3.104;2023-04-01T10:52:12;0.30;;;0.10;;
61038;SDS011;46919;45.816;3.104;2023-04-01T10:54:45;0.40;;;0.10;;
61038;SDS011;46919;45.816;3.104;2023-04-01T11:26:38;1.27;;;0.10;;
61038;SDS011;46919;45.816;3.104;2023-04-01T11:34:57;0.00;;;0.00;;
61038;SDS011;46919;45.816;3.104;2023-04-01T11:41:02;0.65;;;0.00;;
61038;SDS011;46919;45.816;3.104;2023-04-01T11:58:18;0.30;;;0.20;;
61038;SDS011;46919;45.816;3.104;2023-04-01T12:01:24;1.75;;;0.20;;
61038;SDS011;46919;45.816;3.104;2023-04-01T12:04:09;1.15;;;0.20;;
61038;SDS011;46919;45.816;3.104;2023-04-01T12:06:53;1.08;;;0.28;;
61038;SDS011;46919;45.816;3.104;2023-04-01T12:09:42;1.65;;;0.50;;
61038;SDS011;46919;45.816;3.104;2023-04-01T12:12:12;2.00;;;0.30;;
61038;SDS011;46919;45.816;3.104;2023-04-01T12:17:27;1.70;;;0.70;;
61038;SDS011;46919;45.816;3.104;2023-04-01T12:42:47;0.77;;;0.20;;
61038;SDS011;46919;45.816;3.104;2023-04-01T12:45:31;0.38;;;0.20;;
61038;SDS011;46919;45.816;3.104;2023-04-01T12:56:14;1.85;;;0.50;;
61038;SDS011;46919;45.816;3.104;2023-04-01T13:06:52;1.50;;;0.25;;
61038;SDS011;46919;45.816;3.104;2023-04-01T13:12:12;2.08;;;0.32;;
61038;SDS011;46919;45.816;3.104;2023-04-01T13:23:24;2.17;;;0.57;;
61038;SDS011;46919;45.816;3.104;2023-04-01T13:26:08;3.97;;;0.55;;
61038;SDS011;46919;45.816;3.104;2023-04-01T13:34:24;3.42;;;0.70;;
61038;SDS011;46919;45.816;3.104;2023-04-01T13:42:51;3.67;;;0.60;;
61038;SDS011;46919;45.816;3.104;2023-04-01T13:45:24;3.20;;;0.57;;
61038;SDS011;46919;45.816;3.104;2023-04-01T13:50:51;2.22;;;0.52;;
61038;SDS011;46919;45.816;3.104;2023-04-01T13:55:54;1.38;;;0.50;;
61038;SDS011;46919;45.816;3.104;2023-04-01T13:59:10;2.50;;;0.50;;
61038;SDS011;46919;45.816;3.104;2023-04-01T14:10:25;3.47;;;0.57;;
61038;SDS011;46919;45.816;3.104;2023-04-01T14:13:38;3.00;;;0.50;;
61038;SDS011;46919;45.816;3.104;2023-04-01T14:19:16;4.60;;;0.60;;
61038;SDS011;46919;45.816;3.104;2023-04-01T14:32:52;3.30;;;0.50;;
61038;SDS011;46919;45.816;3.104;2023-04-01T14:35:45;2.15;;;0.50;;
61038;SDS011;46919;45.816;3.104;2023-04-01T14:47:08;3.20;;;0.47;;
61038;SDS011;46919;45.816;3.104;2023-04-01T14:49:46;2.33;;;0.40;;
61038;SDS011;46919;45.816;3.104;2023-04-01T14:54:48;3.38;;;0.50;;
61038;SDS011;46919;45.816;3.104;2023-04-01T14:57:31;1.80;;;0.43;;
61038;SDS011;46919;45.816;3.104;2023-04-01T15:16:23;2.00;;;0.50;;
61038;SDS011;46919;45.816;3.104;2023-04-01T15:21:54;1.20;;;0.50;;
61038;SDS011;46919;45.816;3.104;2023-04-01T15:32:40;0.52;;;0.30;;
61038;SDS011;46919;45.816;3.104;2023-04-01T15:38:35;0.88;;;0.20;;
61038;SDS011;46919;45.816;3.104;2023-04-01T15:41:00;0.43;;;0.13;;
61038;SDS011;46919;45.816;3.104;2023-04-01T15:51:43;0.70;;;0.28;;
61038;SDS011;46919;45.816;3.104;2023-04-01T16:03:00;1.02;;;0.30;;
61038;SDS011;46919;45.816;3.104;2023-04-01T16:05:30;0.45;;;0.10;;
61038;SDS011;46919;45.816;3.104;2023-04-01T16:14:09;0.10;;;0.08;;
61038;SDS011;46919;45.816;3.104;2023-04-01T16:16:53;0.10;;;0.10;;
61038;SDS011;46919;45.816;3.104;2023-04-01T16:19:49;0.65;;;0.10;;
61038;SDS011;46919;45.816;3.104;2023-04-01T16:22:30;0.13;;;0.10;;
61038;SDS011;46919;45.816;3.104;2023-04-01T16:27:58;0.28;;;0.25;;
61038;SDS011;46919;45.816;3.104;2023-04-01T16:30:44;0.88;;;0.30;;
61038;SDS011;46919;45.816;3.104;2023-04-01T16:33:17;0.50;;;0.20;;
61038;SDS011;46919;45.816;3.104;2023-04-01T16:35:59;0.90;;;0.22;;
61038;SDS011;46919;45.816;3.104;2023-04-01T16:43:49;1.15;;;0.40;;
61038;SDS011;46919;45.816;3.104;2023-04-01T16:54:18;0.77;;;0.38;;
61038;SDS011;46919;45.816;3.104;2023-04-01T16:56:56;0.90;;;0.50;;
61038;SDS011;46919;45.816;3.104;2023-04-01T16:59:36;1.13;;;0.20;;
61038;SDS011;46919;45.816;3.104;2023-04-01T17:02:33;1.95;;;0.30;;
61038;SDS011;46919;45.816;3.104;2023-04-01T17:05:04;0.57;;;0.10;;
61038;SDS011;46919;45.816;3.104;2023-04-01T17:18:06;0.55;;;0.30;;
61038;SDS011;46919;45.816;3.104;2023-04-01T17:25:38;0.80;;;0.20;;
61038;SDS011;46919;45.816;3.104;2023-04-01T17:28:29;1.17;;;0.30;;
61038;SDS011;46919;45.816;3.104;2023-04-01T17:31:07;0.70;;;0.20;;
61038;SDS011;46919;45.816;3.104;2023-04-01T17:36:27;1.25;;;0.10;;
61038;SDS011;46919;45.816;3.104;2023-04-01T17:41:42;0.77;;;0.40;;
61038;SDS011;46919;45.816;3.104;2023-04-01T17:46:59;3.35;;;0.60;;
61038;SDS011;46919;45.816;3.104;2023-04-01T17:49:30;0.50;;;0.20;;
61038;SDS011;46919;45.816;3.104;2023-04-01T17:52:24;1.13;;;0.60;;
61038;SDS011;46919;45.816;3.104;2023-04-01T18:05:29;0.70;;;0.40;;
61038;SDS011;46919;45.816;3.104;2023-04-01T18:10:41;1.25;;;0.30;;
61038;SDS011;46919;45.816;3.104;2023-04-01T18:13:22;0.93;;;0.30;;
61038;SDS011;46919;45.816;3.104;2023-04-01T18:20:54;0.47;;;0.20;;
61038;SDS011;46919;45.816;3.104;2023-04-01T18:23:53;1.90;;;0.88;;
61038;SDS011;46919;45.816;3.104;2023-04-01T18:26:23;1.73;;;0.30;;
61038;SDS011;46919;45.816;3.104;2023-04-01T18:28:54;0.57;;;0.40;;
61038;SDS011;46919;45.816;3.104;2023-04-01T18:31:24;0.88;;;0.40;;
61038;SDS011;46919;45.816;3.104;2023-04-01T18:34:07;1.73;;;0.30;;
61038;SDS011;46919;45.816;3.104;2023-04-01T18:36:56;0.65;;;0.40;;
61038;SDS011;46919;45.816;3.104;2023-04-01T18:39:39;0.55;;;0.25;;
61038;SDS011;46919;45.816;3.104;2023-04-01T18:55:40;0.57;;;0.40;;
61038;SDS011;46919;45.816;3.104;2023-04-01T18:58:54;1.88;;;0.95;;
61038;SDS011;46919;45.816;3.104;2023-04-01T19:06:33;0.52;;;0.35;;
61038;SDS011;46919;45.816;3.104;2023-04-01T19:09:25;0.63;;;0.30;;
61038;SDS011;46919;45.816;3.104;2023-04-01T19:25:40;0.88;;;0.30;;
61038;SDS011;46919;45.816;3.104;2023-04-01T19:30:56;0.52;;;0.30;;
61038;SDS011;46919;45.816;3.104;2023-04-01T19:36:13;0.30;;;0.10;;
61038;SDS011;46919;45.816;3.104;2023-04-01T19:38:53;0.82;;;0.20;;
61038;SDS011;46919;45.816;3.104;2023-04-01T19:43:56;0.50;;;0.20;;
61038;SDS011;46919;45.816;3.104;2023-04-01T19:46:35;1.63;;;0.20;;
61038;SDS011;46919;45.816;3.104;2023-04-01T19:52:04;1.15;;;0.35;;
61038;SDS011;46919;45.816;3.104;2023-04-01T19:57:16;0.20;;;0.20;;
61038;SDS011;46919;45.816;3.104;2023-04-01T20:00:09;0.93;;;0.30;;
61038;SDS011;46919;45.816;3.104;2023-04-01T20:16:50;1.17;;;0.45;;
61038;SDS011;46919;45.816;3.104;2023-04-01T20:19:43;5.00;;;0.60;;
61038;SDS011;46919;45.816;3.104;2023-04-01T20:24:50;0.60;;;0.30;;
61038;SDS011;46919;45.816;3.104;2023-04-01T20:27:18;3.33;;;0.40;;
61038;SDS011;46919;45.816;3.104;2023-04-01T20:35:50;1.38;;;0.30;;
61038;SDS011;46919;45.816;3.104;2023-04-01T20:52:56;1.75;;;0.60;;
61038;SDS011;46919;45.816;3.104;2023-04-01T20:55:47;1.05;;;0.50;;
61038;SDS011;46919;45.816;3.104;2023-04-01T21:01:44;1.48;;;0.47;;
61038;SDS011;46919;45.816;3.104;2023-04-01T21:04:27;1.63;;;0.40;;
61038;SDS011;46919;45.816;3.104;2023-04-01T21:12:49;2.38;;;0.55;;
61038;SDS011;46919;45.816;3.104;2023-04-01T21:15:26;2.92;;;0.52;;
61038;SDS011;46919;45.816;3.104;2023-04-01T21:17:58;3.40;;;0.50;;
61038;SDS011;46919;45.816;3.104;2023-04-01T21:20:47;1.92;;;0.55;;
61038;SDS011;46919;45.816;3.104;2023-04-01T21:37:32;1.85;;;0.60;;
61038;SDS011;46919;45.816;3.104;2023-04-01T21:43:00;1.70;;;0.40;;
61038;SDS011;46919;45.816;3.104;2023-04-01T22:00:17;4.40;;;0.75;;
61038;SDS011;46919;45.816;3.104;2023-04-01T22:24:39;3.92;;;0.68;;
61038;SDS011;46919;45.816;3.104;2023-04-01T22:32:33;6.63;;;0.75;;
61038;SDS011;46919;45.816;3.104;2023-04-01T22:43:12;5.20;;;0.60;;
61038;SDS011;46919;45.816;3.104;2023-04-01T22:51:46;3.75;;;0.68;;
61038;SDS011;46919;45.816;3.104;2023-04-01T22:55:10;4.03;;;0.85;;
61038;SDS011;46919;45.816;3.104;2023-04-01T23:00:21;4.97;;;0.95;;
61038;SDS011;46919;45.816;3.104;2023-04-01T23:05:50;3.20;;;1.50;;
61038;SDS011;46919;45.816;3.104;2023-04-01T23:10:50;3.70;;;1.10;;
61038;SDS011;46919;45.816;3.104;2023-04-01T23:13:21;4.53;;;0.90;;
61038;SDS011;46919;45.816;3.104;2023-04-01T23:15:52;4.00;;;1.00;;
61038;SDS011;46919;45.816;3.104;2023-04-01T23:20:53;5.95;;;1.00;;
61038;SDS011;46919;45.816;3.104;2023-04-01T23:29:14;5.00;;;0.90;;
61038;SDS011;46919;45.816;3.104;2023-04-01T23:31:42;4.25;;;1.15;;
61038;SDS011;46919;45.816;3.104;2023-04-01T23:36:39;3.50;;;1.00;;
61038;SDS011;46919;45.816;3.104;2023-04-01T23:41:55;2.78;;;0.82;;
61038;SDS011;46919;45.816;3.104;2023-04-01T23:44:25;6.95;;;1.08;;
61038;SDS011;46919;45.816;3.104;2023-04-01T23:46:53;3.75;;;0.90;;
61038;SDS011;46919;45.816;3.104;2023-04-01T23:49:28;4.53;;;1.20;;
61038;SDS011;46919;45.816;3.104;2023-04-01T23:54:53;6.47;;;1.33;;
61038;SDS011;46919;45.816;3.104;2023-04-01T23:57:29;5.78;;;1.02;;
